createdAt,value
2023-04-18T00:01:30.594Z,11.43
2023-04-18T00:03:58.090Z,10.13
2023-04-18T00:06:25.940Z,12.02
2023-04-18T00:08:53.338Z,11.77
2023-04-18T00:11:20.963Z,12.23
2023-04-18T00:13:48.307Z,11.38
2023-04-18T00:16:16.390Z,11.32
2023-04-18T00:18:43.744Z,11.73
2023-04-18T00:21:11.557Z,12.02
2023-04-18T00:23:39.754Z,11.25
2023-04-18T00:26:07.348Z,11.25
2023-04-18T00:28:34.711Z,12.32
2023-04-18T00:31:02.272Z,10.95
2023-04-18T00:33:29.569Z,11.48
2023-04-18T00:35:57.090Z,11.65
2023-04-18T00:38:24.409Z,10.60
2023-04-18T00:40:51.988Z,10.43
2023-04-18T00:43:19.285Z,11.68
2023-04-18T00:45:46.894Z,9.25
2023-04-18T00:48:14.221Z,12.10
2023-04-18T00:50:42.280Z,11.60
2023-04-18T00:53:10.679Z,12.88
2023-04-18T00:55:38.931Z,6.88
2023-04-18T00:58:06.382Z,11.35
2023-04-18T01:00:34.276Z,13.27
2023-04-18T01:03:01.701Z,11.57
2023-04-18T01:05:29.596Z,13.15
2023-04-18T01:08:00.898Z,10.77
2023-04-18T01:10:29.197Z,11.95
2023-04-18T01:13:15.890Z,13.93
2023-04-18T01:15:44.019Z,13.65
2023-04-18T01:18:13.099Z,15.68
2023-04-18T01:20:46.593Z,15.85
2023-04-18T01:23:14.460Z,15.82
2023-04-18T01:25:42.057Z,15.00
2023-04-18T01:28:09.453Z,15.75
2023-04-18T01:30:37.421Z,14.23
2023-04-18T01:33:05.510Z,14.30
2023-04-18T01:35:36.338Z,14.52
2023-04-18T01:38:03.647Z,15.60
2023-04-18T01:40:31.296Z,12.15
2023-04-18T01:42:58.732Z,14.45
2023-04-18T01:45:26.307Z,13.20
2023-04-18T01:47:53.633Z,13.98
2023-04-18T01:50:21.312Z,15.02
2023-04-18T01:52:48.649Z,15.15
2023-04-18T01:55:16.179Z,15.07
2023-04-18T01:57:43.520Z,14.30
2023-04-18T02:00:11.450Z,13.63
2023-04-18T02:02:38.974Z,15.05
2023-04-18T02:05:06.828Z,14.13
2023-04-18T02:07:34.109Z,15.10
2023-04-18T02:10:01.719Z,13.90
2023-04-18T02:12:29.076Z,15.30
2023-04-18T02:14:56.599Z,14.70
2023-04-18T02:17:24.291Z,13.07
2023-04-18T02:19:52.341Z,15.52
2023-04-18T02:22:19.720Z,15.05
2023-04-18T02:24:47.587Z,13.90
2023-04-18T02:27:15.028Z,12.90
2023-04-18T02:29:42.623Z,13.18
2023-04-18T02:32:09.943Z,13.32
2023-04-18T02:34:37.793Z,13.52
2023-04-18T02:37:05.202Z,13.35
2023-04-18T02:39:32.934Z,12.55
2023-04-18T02:42:01.495Z,11.07
2023-04-18T02:44:29.351Z,13.48
2023-04-18T02:46:56.685Z,13.23
2023-04-18T02:49:24.536Z,13.15
2023-04-18T02:51:55.768Z,14.68
2023-04-18T02:54:24.671Z,12.38
2023-04-18T02:56:55.295Z,15.13
2023-04-18T02:59:22.972Z,11.38
2023-04-18T03:01:50.485Z,12.25
2023-04-18T03:04:18.330Z,12.55
2023-04-18T03:06:45.862Z,13.55
2023-04-18T03:09:13.431Z,13.07
2023-04-18T03:11:40.704Z,13.00
2023-04-18T03:14:08.391Z,15.38
2023-04-18T03:16:35.676Z,12.32
2023-04-18T03:19:03.261Z,14.52
2023-04-18T03:21:30.747Z,12.30
2023-04-18T03:23:58.510Z,15.88
2023-04-18T03:26:26.726Z,16.08
2023-04-18T03:28:54.601Z,13.95
2023-04-18T03:31:21.871Z,15.18
2023-04-18T03:33:51.560Z,14.02
2023-04-18T03:36:18.868Z,14.52
2023-04-18T03:38:46.460Z,14.35
2023-04-18T03:41:13.774Z,14.35
2023-04-18T03:43:41.361Z,14.45
2023-04-18T03:46:08.660Z,13.98
2023-04-18T03:48:37.460Z,16.00
2023-04-18T03:51:06.044Z,14.38
2023-04-18T03:53:33.686Z,14.45
2023-04-18T03:56:01.004Z,10.52
2023-04-18T03:58:28.630Z,13.48
2023-04-18T04:00:55.901Z,15.13
2023-04-18T04:03:23.499Z,16.42
2023-04-18T04:05:50.824Z,10.85
2023-04-18T04:08:18.384Z,14.65
2023-04-18T04:10:45.662Z,14.95
2023-04-18T04:13:13.224Z,14.40
2023-04-18T04:15:40.183Z,10.68
2023-04-18T04:18:08.685Z,12.55
2023-04-18T04:20:36.264Z,13.68
2023-04-18T04:23:03.916Z,13.10
2023-04-18T04:25:33.227Z,12.65
2023-04-18T04:28:01.500Z,13.95
2023-04-18T04:30:28.940Z,9.55
2023-04-18T04:32:56.485Z,13.75
2023-04-18T04:35:23.867Z,12.07
2023-04-18T04:37:51.692Z,12.85
2023-04-18T04:40:19.189Z,13.75
2023-04-18T04:42:49.049Z,13.75
2023-04-18T04:45:17.451Z,12.38
2023-04-18T04:47:45.013Z,13.15
2023-04-18T04:50:15.439Z,6.70
2023-04-18T04:52:43.224Z,10.68
2023-04-18T04:55:11.038Z,10.93
2023-04-18T04:57:38.771Z,11.98
2023-04-18T05:00:07.276Z,7.05
2023-04-18T05:02:35.009Z,13.13
2023-04-18T05:05:02.588Z,12.57
2023-04-18T05:07:30.321Z,10.20
2023-04-18T05:09:57.572Z,11.18
2023-04-18T05:12:25.202Z,11.60
2023-04-18T05:14:52.485Z,11.50
2023-04-18T05:17:20.205Z,8.85
2023-04-18T05:19:47.533Z,10.05
2023-04-18T05:22:15.233Z,9.70
2023-04-18T05:24:42.520Z,9.65
2023-04-18T05:27:10.401Z,5.85
2023-04-18T05:29:37.659Z,8.55
2023-04-18T05:32:06.312Z,8.07
2023-04-18T05:34:38.583Z,8.90
2023-04-18T05:37:06.451Z,9.13
2023-04-18T05:39:33.741Z,9.57
2023-04-18T05:42:02.216Z,7.30
2023-04-18T05:44:29.939Z,8.35
2023-04-18T05:46:57.536Z,7.55
2023-04-18T05:49:24.847Z,7.93
2023-04-18T05:51:52.864Z,8.25
2023-04-18T05:54:25.097Z,7.97
2023-04-18T05:56:52.779Z,7.75
2023-04-18T05:59:20.860Z,7.82
2023-04-18T06:01:49.301Z,8.05
2023-04-18T06:04:17.640Z,6.47
2023-04-18T06:06:46.130Z,8.65
2023-04-18T06:09:13.833Z,6.93
2023-04-18T06:11:41.506Z,8.68
2023-04-18T06:14:08.797Z,8.48
2023-04-18T06:16:37.543Z,7.32
2023-04-18T06:19:05.568Z,7.70
2023-04-18T06:21:33.481Z,6.93
2023-04-18T06:24:01.613Z,6.82
2023-04-18T06:26:31.885Z,8.93
2023-04-18T06:28:59.257Z,6.80
2023-04-18T06:31:26.842Z,7.40
2023-04-18T06:33:54.127Z,8.82
2023-04-18T06:36:21.902Z,7.65
2023-04-18T06:38:49.179Z,7.75
2023-04-18T06:41:16.810Z,7.60
2023-04-18T06:43:52.380Z,8.45
2023-04-18T06:46:30.381Z,7.28
2023-04-18T06:48:57.844Z,7.85
2023-04-18T06:51:25.430Z,8.38
2023-04-18T06:53:53.704Z,6.60
2023-04-18T06:56:21.519Z,7.57
2023-04-18T06:58:49.682Z,7.28
2023-04-18T07:01:17.412Z,5.18
2023-04-18T07:03:44.858Z,5.50
2023-04-18T07:06:12.602Z,7.95
2023-04-18T07:08:39.939Z,7.15
2023-04-18T07:11:07.497Z,5.63
2023-04-18T07:13:34.812Z,9.23
2023-04-18T07:16:02.816Z,8.32
2023-04-18T07:18:37.890Z,4.85
2023-04-18T07:21:09.766Z,7.53
2023-04-18T07:23:37.172Z,6.05
2023-04-18T07:26:05.771Z,7.25
2023-04-18T07:28:33.618Z,5.15
2023-04-18T07:31:03.017Z,5.68
2023-04-18T07:33:33.552Z,7.10
2023-04-18T07:36:01.705Z,8.95
2023-04-18T07:38:29.059Z,8.60
2023-04-18T07:40:57.347Z,6.28
2023-04-18T07:43:24.710Z,8.57
2023-04-18T07:45:52.848Z,9.20
2023-04-18T07:48:25.144Z,7.70
2023-04-18T07:50:53.033Z,6.93
2023-04-18T07:53:21.065Z,7.82
2023-04-18T07:55:48.664Z,7.25
2023-04-18T07:58:16.039Z,8.15
2023-04-18T08:00:44.802Z,7.50
2023-04-18T08:03:12.830Z,6.25
2023-04-18T08:05:42.706Z,8.70
2023-04-18T08:08:10.867Z,7.07
2023-04-18T08:10:38.878Z,8.10
2023-04-18T08:13:08.264Z,6.80
2023-04-18T08:15:36.124Z,8.20
2023-04-18T08:18:03.494Z,6.88
2023-04-18T08:20:31.585Z,6.90
2023-04-18T08:23:06.941Z,6.45
2023-04-18T08:25:36.758Z,7.50
2023-04-18T08:28:04.383Z,8.13
2023-04-18T08:30:32.326Z,7.90
2023-04-18T08:33:00.446Z,7.47
2023-04-18T08:35:28.513Z,8.02
2023-04-18T08:37:55.863Z,6.13
2023-04-18T08:40:23.488Z,7.18
2023-04-18T08:42:53.884Z,6.90
2023-04-18T08:45:21.523Z,8.05
2023-04-18T08:47:48.976Z,6.00
2023-04-18T08:50:17.238Z,7.40
2023-04-18T08:52:51.192Z,6.13
2023-04-18T08:55:19.188Z,8.25
2023-04-18T08:57:47.451Z,6.35
2023-04-18T09:00:16.545Z,9.45
2023-04-18T09:02:44.992Z,5.63
2023-04-18T09:05:18.972Z,9.27
2023-04-18T09:07:46.968Z,7.20
2023-04-18T09:10:15.368Z,7.43
2023-04-18T09:12:50.605Z,8.23
2023-04-18T09:15:20.377Z,6.80
2023-04-18T09:17:53.999Z,7.10
2023-04-18T09:20:35.779Z,5.95
2023-04-18T09:23:04.408Z,8.43
2023-04-18T09:25:40.118Z,8.93
2023-04-18T09:28:28.733Z,8.43
2023-04-18T09:30:57.708Z,7.93
2023-04-18T09:33:29.188Z,5.15
2023-04-18T09:36:15.700Z,7.70
2023-04-18T09:38:43.077Z,7.43
2023-04-18T09:41:11.605Z,8.88
2023-04-18T09:43:39.125Z,7.00
2023-04-18T09:46:08.081Z,4.68
2023-04-18T09:48:35.566Z,8.10
2023-04-18T09:51:07.359Z,7.22
2023-04-18T09:53:38.362Z,6.32
2023-04-18T09:56:12.638Z,8.40
2023-04-18T09:58:42.075Z,7.13
2023-04-18T10:01:12.550Z,7.97
2023-04-18T10:03:42.694Z,7.68
2023-04-18T10:06:10.776Z,8.18
2023-04-18T10:08:39.212Z,6.38
2023-04-18T10:11:06.869Z,6.68
2023-04-18T10:13:35.163Z,6.30
2023-04-18T10:16:03.147Z,7.18
2023-04-18T10:18:30.532Z,7.90
2023-04-18T10:21:04.669Z,8.07
2023-04-18T10:23:32.083Z,6.07
2023-04-18T10:25:59.834Z,11.90
2023-04-18T10:28:28.164Z,7.57
2023-04-18T10:31:03.769Z,8.25
2023-04-18T10:33:35.640Z,8.30
2023-04-18T10:36:09.822Z,8.45
2023-04-18T10:38:45.325Z,8.00
2023-04-18T10:41:14.345Z,8.27
2023-04-18T10:44:00.202Z,9.27
2023-04-18T10:46:32.510Z,8.15
2023-04-18T10:49:20.275Z,9.60
2023-04-18T10:51:49.551Z,9.35
2023-04-18T10:54:19.627Z,7.18
2023-04-18T10:56:54.147Z,6.97
2023-04-18T10:59:26.852Z,8.00
2023-04-18T11:01:58.461Z,9.23
2023-04-18T11:04:26.078Z,7.57
2023-04-18T11:06:58.489Z,6.75
2023-04-18T11:09:25.925Z,10.82
2023-04-18T11:12:13.794Z,8.77
2023-04-18T11:14:41.882Z,8.27
2023-04-18T11:17:18.842Z,12.98
2023-04-18T11:19:46.233Z,8.75
2023-04-18T11:22:14.247Z,9.35
2023-04-18T11:24:41.714Z,9.77
2023-04-18T11:27:10.103Z,8.32
2023-04-18T11:29:37.549Z,11.20
2023-04-18T11:32:08.954Z,10.77
2023-04-18T11:34:36.591Z,10.68
2023-04-18T11:37:08.127Z,9.80
2023-04-18T11:39:36.453Z,12.68
2023-04-18T11:42:04.384Z,12.93
2023-04-18T11:44:33.161Z,12.85
2023-04-18T11:47:02.582Z,8.52
2023-04-18T11:49:33.258Z,8.32
2023-04-18T11:52:03.854Z,10.98
2023-04-18T11:54:44.173Z,9.02
2023-04-18T11:57:22.183Z,13.10
2023-04-18T11:59:53.751Z,12.25
2023-04-18T12:02:22.490Z,12.60
2023-04-18T12:04:52.105Z,9.38
2023-04-18T12:07:38.528Z,10.48
2023-04-18T12:10:07.078Z,9.75
2023-04-18T12:12:34.995Z,10.75
2023-04-18T12:15:15.148Z,8.95
2023-04-18T12:17:48.407Z,10.63
2023-04-18T12:20:16.131Z,9.93
2023-04-18T12:22:49.503Z,11.20
2023-04-18T12:25:24.379Z,9.38
2023-04-18T12:27:55.058Z,9.32
2023-04-18T12:30:23.393Z,11.52
2023-04-18T12:32:51.788Z,10.68
2023-04-18T12:35:19.656Z,8.60
2023-04-18T12:37:48.048Z,7.45
2023-04-18T12:40:15.989Z,10.23
2023-04-18T12:42:43.641Z,8.23
2023-04-18T12:45:11.629Z,9.63
2023-04-18T12:47:39.830Z,8.90
2023-04-18T12:50:11.140Z,8.60
2023-04-18T12:52:40.655Z,8.10
2023-04-18T12:55:08.422Z,8.52
2023-04-18T12:57:36.258Z,8.25
2023-04-18T13:00:06.440Z,6.47
2023-04-18T13:02:37.221Z,6.85
2023-04-18T13:05:08.571Z,9.13
2023-04-18T13:07:40.466Z,10.02
2023-04-18T13:10:11.739Z,6.97
2023-04-18T13:12:40.649Z,6.07
2023-04-18T13:15:08.532Z,8.93
2023-04-18T13:17:36.886Z,7.40
2023-04-18T13:20:06.410Z,8.52
2023-04-18T13:22:38.360Z,7.57
2023-04-18T13:25:07.122Z,8.30
2023-04-18T13:27:35.007Z,6.65
2023-04-18T13:30:02.643Z,7.60
2023-04-18T13:32:30.425Z,9.88
2023-04-18T13:34:57.798Z,7.38
2023-04-18T13:37:25.585Z,8.02
2023-04-18T13:39:52.905Z,10.45
2023-04-18T13:42:20.792Z,8.73
2023-04-18T13:44:48.155Z,7.00
2023-04-18T13:47:16.212Z,7.43
2023-04-18T13:49:43.593Z,7.85
2023-04-18T13:52:11.265Z,6.85
2023-04-18T13:54:38.726Z,7.40
2023-04-18T13:57:11.377Z,5.72
2023-04-18T13:59:40.535Z,7.77
2023-04-18T14:02:09.173Z,7.25
2023-04-18T14:04:37.414Z,6.32
2023-04-18T14:07:06.266Z,8.50
2023-04-18T14:09:33.737Z,6.78
2023-04-18T14:12:01.984Z,4.57
2023-04-18T14:14:29.760Z,6.38
2023-04-18T14:16:57.701Z,5.90
2023-04-18T14:19:25.072Z,5.35
2023-04-18T14:21:52.682Z,5.00
2023-04-18T14:24:20.014Z,8.48
2023-04-18T14:26:47.943Z,10.02
2023-04-18T14:29:15.530Z,8.05
2023-04-18T14:31:43.769Z,7.10
2023-04-18T14:34:11.117Z,7.20
2023-04-18T14:36:38.982Z,5.95
2023-04-18T14:39:06.262Z,5.82
2023-04-18T14:41:33.858Z,6.47
2023-04-18T14:44:01.194Z,7.25
2023-04-18T14:46:29.229Z,6.55
2023-04-18T14:48:56.572Z,6.32
2023-04-18T14:51:24.494Z,4.63
2023-04-18T14:53:51.778Z,6.43
2023-04-18T14:56:21.454Z,5.60
2023-04-18T14:58:48.951Z,5.55
2023-04-18T15:01:19.506Z,6.57
2023-04-18T15:03:47.043Z,6.18
2023-04-18T15:06:14.812Z,5.55
2023-04-18T15:08:44.362Z,8.05
2023-04-18T15:11:12.002Z,6.25
2023-04-18T15:13:40.032Z,6.43
2023-04-18T15:16:08.039Z,5.75
2023-04-18T15:18:35.754Z,8.25
2023-04-18T15:21:03.469Z,7.05
2023-04-18T15:23:30.753Z,5.32
2023-04-18T15:25:59.613Z,8.07
2023-04-18T15:28:26.953Z,7.20
2023-04-18T15:30:54.557Z,4.63
2023-04-18T15:33:22.949Z,7.25
2023-04-18T15:35:50.776Z,5.05
2023-04-18T15:38:18.114Z,5.45
2023-04-18T15:40:45.806Z,8.18
2023-04-18T15:43:13.784Z,8.85
2023-04-18T15:45:44.220Z,6.30
2023-04-18T15:48:13.354Z,8.25
2023-04-18T15:50:42.451Z,10.98
2023-04-18T15:53:09.832Z,11.13
2023-04-18T15:55:37.515Z,10.68
2023-04-18T15:58:05.061Z,5.07
2023-04-18T16:00:32.711Z,2.65
2023-04-18T16:03:00.135Z,3.42
2023-04-18T16:05:27.901Z,5.72
2023-04-18T16:07:56.238Z,4.97
2023-04-18T16:10:23.858Z,4.38
2023-04-18T16:12:51.238Z,5.20
2023-04-18T16:15:18.798Z,3.85
2023-04-18T16:17:46.238Z,4.82
2023-04-18T16:20:13.805Z,4.45
2023-04-18T16:22:41.321Z,4.55
2023-04-18T16:25:09.335Z,4.05
2023-04-18T16:27:36.638Z,4.07
2023-04-18T16:30:05.071Z,4.78
2023-04-18T16:32:32.408Z,3.65
2023-04-18T16:35:00.221Z,4.40
2023-04-18T16:37:27.539Z,3.13
2023-04-18T16:39:55.170Z,4.32
2023-04-18T16:42:22.463Z,3.97
2023-04-18T16:44:50.051Z,3.22
2023-04-18T16:47:17.378Z,3.05
2023-04-18T16:49:46.627Z,3.05
2023-04-18T16:52:14.543Z,3.55
2023-04-18T16:54:42.113Z,3.78
2023-04-18T16:57:09.437Z,3.38
2023-04-18T16:59:37.079Z,2.85
2023-04-18T17:02:04.515Z,3.83
2023-04-18T17:04:32.462Z,2.97
2023-04-18T17:07:00.692Z,5.15
2023-04-18T17:09:28.573Z,3.83
2023-04-18T17:11:55.835Z,3.88
2023-04-18T17:14:23.371Z,3.15
2023-04-18T17:16:52.850Z,4.15
2023-04-18T17:19:21.283Z,3.58
2023-04-18T17:21:50.816Z,3.40
2023-04-18T17:24:18.838Z,2.75
2023-04-18T17:26:46.177Z,3.55
2023-04-18T17:29:13.970Z,4.95
2023-04-18T17:31:41.526Z,4.35
2023-04-18T17:34:09.072Z,2.90
2023-04-18T17:36:36.424Z,4.00
2023-04-18T17:39:06.996Z,4.05
2023-04-18T17:41:38.376Z,4.05
2023-04-18T17:44:07.742Z,2.80
2023-04-18T17:46:35.313Z,2.45
2023-04-18T17:49:04.281Z,4.07
2023-04-18T17:51:31.676Z,4.70
2023-04-18T17:53:59.355Z,4.97
2023-04-18T17:56:27.267Z,3.08
2023-04-18T17:58:56.685Z,3.10
2023-04-18T18:01:26.162Z,3.58
2023-04-18T18:03:54.352Z,3.47
2023-04-18T18:06:21.853Z,4.35
2023-04-18T18:08:49.482Z,4.53
2023-04-18T18:11:16.925Z,4.80
2023-04-18T18:13:46.526Z,4.10
2023-04-18T18:16:13.937Z,4.95
2023-04-18T18:18:41.855Z,5.88
2023-04-18T18:21:10.566Z,3.83
2023-04-18T18:23:38.184Z,3.58
2023-04-18T18:26:06.559Z,4.32
2023-04-18T18:28:34.457Z,3.10
2023-04-18T18:31:01.852Z,3.70
2023-04-18T18:33:29.502Z,4.13
2023-04-18T18:35:58.552Z,3.63
2023-04-18T18:38:26.538Z,3.08
2023-04-18T18:40:53.818Z,3.13
2023-04-18T18:43:26.113Z,3.35
2023-04-18T18:45:53.685Z,3.88
2023-04-18T18:48:21.649Z,2.55
2023-04-18T18:50:48.967Z,3.42
2023-04-18T18:53:17.884Z,3.13
2023-04-18T18:55:45.618Z,3.05
2023-04-18T18:58:13.429Z,2.72
2023-04-18T19:00:40.884Z,2.90
2023-04-18T19:03:08.573Z,2.97
2023-04-18T19:05:36.130Z,2.67
2023-04-18T19:08:04.860Z,4.90
2023-04-18T19:10:32.123Z,4.18
2023-04-18T19:13:00.359Z,2.22
2023-04-18T19:15:27.667Z,2.17
2023-04-18T19:17:55.935Z,6.85
2023-04-18T19:20:23.755Z,5.72
2023-04-18T19:22:51.305Z,6.10
2023-04-18T19:25:18.627Z,4.57
2023-04-18T19:27:46.517Z,4.20
2023-04-18T19:30:13.947Z,3.47
2023-04-18T19:32:42.256Z,2.97
2023-04-18T19:35:13.026Z,3.78
2023-04-18T19:37:40.662Z,3.13
2023-04-18T19:40:08.300Z,2.30
2023-04-18T19:42:36.024Z,2.90
2023-04-18T19:45:03.478Z,3.05
2023-04-18T19:47:33.776Z,2.28
2023-04-18T19:50:01.531Z,3.42
2023-04-18T19:52:29.148Z,3.10
2023-04-18T19:54:56.540Z,3.78
2023-04-18T19:57:25.713Z,2.85
2023-04-18T19:59:53.010Z,3.47
2023-04-18T20:02:20.843Z,3.78
2023-04-18T20:04:48.397Z,3.47
2023-04-18T20:07:16.322Z,3.03
2023-04-18T20:09:43.587Z,3.05
2023-04-18T20:12:11.493Z,3.90
2023-04-18T20:14:38.764Z,3.50
2023-04-18T20:17:06.545Z,2.38
2023-04-18T20:19:33.824Z,3.30
2023-04-18T20:22:01.933Z,3.15
2023-04-18T20:24:31.658Z,2.42
2023-04-18T20:27:00.256Z,3.10
2023-04-18T20:29:27.776Z,2.45
2023-04-18T20:31:55.811Z,2.78
2023-04-18T20:34:23.182Z,2.78
2023-04-18T20:36:52.467Z,2.33
2023-04-18T20:39:19.953Z,2.50
2023-04-18T20:41:51.368Z,3.28
2023-04-18T20:44:22.208Z,2.85
2023-04-18T20:46:49.803Z,2.63
2023-04-18T20:49:17.256Z,2.38
2023-04-18T20:51:45.118Z,2.53
2023-04-18T20:54:12.632Z,2.55
2023-04-18T20:56:40.585Z,2.90
2023-04-18T20:59:07.906Z,2.90
2023-04-18T21:01:37.060Z,1.75
2023-04-18T21:04:04.898Z,2.28
2023-04-18T21:06:32.905Z,3.42
2023-04-18T21:09:00.354Z,3.40
2023-04-18T21:11:28.224Z,2.90
2023-04-18T21:13:55.508Z,2.70
2023-04-18T21:16:24.104Z,3.30
2023-04-18T21:18:51.477Z,2.10
2023-04-18T21:21:19.025Z,2.38
2023-04-18T21:23:46.324Z,2.58
2023-04-18T21:26:14.423Z,3.00
2023-04-18T21:28:53.981Z,2.45
2023-04-18T21:31:21.683Z,1.48
2023-04-18T21:33:51.995Z,1.15
2023-04-18T21:36:19.933Z,1.83
2023-04-18T21:38:47.264Z,3.50
2023-04-18T21:41:16.108Z,6.72
2023-04-18T21:43:43.815Z,3.58
2023-04-18T21:46:12.411Z,3.60
2023-04-18T21:48:40.821Z,3.08
2023-04-18T21:51:13.172Z,2.45
2023-04-18T21:53:40.869Z,2.63
2023-04-18T21:56:09.238Z,1.70
2023-04-18T21:58:36.599Z,1.48
2023-04-18T22:01:04.269Z,2.50
2023-04-18T22:03:32.318Z,3.13
2023-04-18T22:06:00.204Z,2.42
2023-04-18T22:08:27.648Z,2.22
2023-04-18T22:10:55.970Z,2.20
2023-04-18T22:13:23.504Z,1.98
2023-04-18T22:15:54.523Z,2.22
2023-04-18T22:18:21.860Z,2.20
2023-04-18T22:20:49.449Z,2.35
2023-04-18T22:23:16.736Z,2.40
2023-04-18T22:25:44.460Z,2.45
2023-04-18T22:28:12.001Z,1.83
2023-04-18T22:30:39.648Z,2.78
2023-04-18T22:33:06.957Z,2.10
2023-04-18T22:35:34.810Z,1.98
2023-04-18T22:38:02.186Z,2.00
2023-04-18T22:40:29.801Z,1.52
2023-04-18T22:42:57.069Z,2.58
2023-04-18T22:45:24.654Z,1.83
2023-04-18T22:47:51.989Z,2.53
2023-04-18T22:50:19.612Z,1.67
2023-04-18T22:52:47.004Z,2.03
2023-04-18T22:55:16.463Z,2.03
2023-04-18T22:57:43.801Z,1.95
2023-04-18T23:00:11.707Z,2.97
2023-04-18T23:02:39.104Z,2.10
2023-04-18T23:05:07.975Z,2.63
2023-04-18T23:07:35.510Z,2.13
2023-04-18T23:10:04.741Z,2.90
2023-04-18T23:12:32.030Z,2.00
2023-04-18T23:14:59.613Z,2.08
2023-04-18T23:17:26.914Z,1.80
2023-04-18T23:19:54.551Z,1.73
2023-04-18T23:22:24.008Z,2.33
2023-04-18T23:24:51.616Z,2.42
2023-04-18T23:27:19.428Z,2.38
2023-04-18T23:29:48.753Z,1.40
2023-04-18T23:32:16.105Z,2.10
2023-04-18T23:34:43.696Z,1.75
2023-04-18T23:37:11.041Z,2.97
2023-04-18T23:39:38.605Z,2.30
2023-04-18T23:42:05.951Z,2.65
2023-04-18T23:44:33.576Z,2.05
2023-04-18T23:47:00.872Z,3.13
2023-04-18T23:49:28.536Z,2.80
2023-04-18T23:51:55.816Z,3.15
2023-04-18T23:54:23.628Z,2.05
2023-04-18T23:56:51.033Z,2.35
2023-04-18T23:59:18.623Z,3.10
